Time;durP1;ratioP1;P1;durP2;ratioP2;P2;SDS_P1;SDS_P2;PMS_P1;PMS_P2;Temp;Humidity;BMP_temperature;BMP_pressure;BME280_temperature;BME280_humidity;BME280_pressure;Samples;Min_cycle;Max_cycle;Signal;HPM_P1;HPM_P2
2023/11/20 00:00:33;;;;;;;16.23;2.38;;;;;;;9.94;100.00;98616.94;5083375;28;20074;-77
2023/11/20 00:02:59;;;;;;;19.65;2.67;;;;;;;9.80;100.00;98605.25;5065776;28;20024;-77
2023/11/20 00:05:24;;;;;;;16.48;2.45;;;;;;;9.73;100.00;98607.94;5079883;28;20489;-77
2023/11/20 00:07:49;;;;;;;16.25;1.88;;;;;;;9.90;100.00;98646.22;5076364;28;20024;-78
2023/11/20 00:10:15;;;;;;;13.32;2.00;;;;;;;9.69;100.00;98613.94;5049311;28;20021;-77
2023/11/20 00:12:40;;;;;;;10.82;1.55;;;;;;;9.68;100.00;98613.09;5046994;28;20024;-77
2023/11/20 00:15:07;;;;;;;10.40;1.88;;;;;;;9.63;100.00;98623.69;5051490;28;20051;-77
2023/11/20 00:17:33;;;;;;;14.00;1.92;;;;;;;9.80;100.00;98627.72;5064317;28;20024;-77
2023/11/20 00:19:58;;;;;;;15.43;2.38;;;;;;;9.65;100.00;98618.91;5065229;28;20017;-77
2023/11/20 00:22:24;;;;;;;7.93;1.80;;;;;;;9.53;100.00;98624.03;5083675;28;20222;-77
2023/11/20 00:24:49;;;;;;;12.32;1.75;;;;;;;9.72;100.00;98630.59;5061460;28;20028;-77
2023/11/20 00:27:15;;;;;;;13.20;1.40;;;;;;;9.62;100.00;98603.13;5083381;28;20468;-77
2023/11/20 00:29:41;;;;;;;19.95;2.85;;;;;;;9.71;100.00;98634.31;5063113;28;20028;-78
2023/11/20 00:32:06;;;;;;;15.52;2.10;;;;;;;9.48;100.00;98610.31;5069310;28;20337;-77
2023/11/20 00:34:32;;;;;;;16.67;2.25;;;;;;;9.56;100.00;98612.88;5072982;28;20091;-78
2023/11/20 00:36:57;;;;;;;8.38;1.55;;;;;;;9.66;100.00;98628.69;5063620;28;20016;-77
2023/11/20 00:39:22;;;;;;;9.77;1.40;;;;;;;9.49;100.00;98628.19;5083117;28;20032;-77
2023/11/20 00:41:48;;;;;;;9.13;1.58;;;;;;;9.52;100.00;98635.91;5051887;28;20020;-77
2023/11/20 00:44:16;;;;;;;13.45;1.60;;;;;;;9.65;100.00;98630.56;5054257;28;20024;-77
2023/11/20 00:46:41;;;;;;;22.45;2.40;;;;;;;9.69;100.00;98622.03;5051184;28;20252;-77
2023/11/20 00:49:07;;;;;;;15.05;1.65;;;;;;;9.78;100.00;98627.06;5058937;28;20055;-77
2023/11/20 00:51:32;;;;;;;11.60;1.52;;;;;;;9.80;100.00;98627.72;5065753;28;20032;-77
2023/11/20 00:53:58;;;;;;;12.10;1.88;;;;;;;9.74;100.00;98628.50;5069050;28;20024;-79
2023/11/20 00:56:23;;;;;;;19.35;2.58;;;;;;;9.76;100.00;98618.31;5078368;28;20020;-77
2023/11/20 00:58:49;;;;;;;13.60;1.58;;;;;;;9.74;100.00;98628.50;5057049;28;20069;-77
2023/11/20 01:01:15;;;;;;;8.85;1.70;;;;;;;9.68;100.00;98626.63;5081255;28;20016;-77
2023/11/20 01:03:40;;;;;;;11.63;2.03;;;;;;;9.70;100.00;98623.72;5081437;28;20313;-77
2023/11/20 01:06:08;;;;;;;13.35;1.48;;;;;;;9.71;100.00;98650.53;5063982;28;20103;-77
2023/11/20 01:11:06;;;;;;;9.27;1.40;;;;;;;9.81;100.00;98655.56;5029505;28;20072;-62
2023/11/20 01:13:31;;;;;;;12.02;1.45;;;;;;;9.82;100.00;98651.81;5023160;28;20487;-62
2023/11/20 01:15:57;;;;;;;11.90;2.17;;;;;;;9.70;100.00;98654.25;5008720;28;20056;-62
2023/11/20 01:18:22;;;;;;;18.05;2.03;;;;;;;9.59;100.00;98657.56;5004657;28;20057;-60
2023/11/20 01:20:48;;;;;;;7.30;1.60;;;;;;;9.48;100.00;98656.22;5005858;28;20025;-60
2023/11/20 01:23:13;;;;;;;13.05;1.85;;;;;;;9.46;100.00;98657.44;5001696;28;20116;-62
2023/11/20 01:25:38;;;;;;;9.50;1.52;;;;;;;9.36;100.00;98663.25;4994641;28;20112;-60
2023/11/20 01:28:04;;;;;;;10.35;1.77;;;;;;;9.41;100.00;98667.00;5011147;28;20026;-60
2023/11/20 01:30:29;;;;;;;12.90;1.40;;;;;;;9.44;100.00;98669.31;4999981;28;20030;-60
2023/11/20 01:32:54;;;;;;;14.43;1.38;;;;;;;9.49;100.00;98682.22;5007688;28;20030;-60
2023/11/20 01:35:20;;;;;;;10.73;1.08;;;;;;;9.55;100.00;98677.88;5027822;28;20033;-60
2023/11/20 01:37:46;;;;;;;10.43;1.27;;;;;;;9.50;100.00;98674.94;4993909;28;20510;-60
2023/11/20 01:40:14;;;;;;;12.85;1.67;;;;;;;9.67;100.00;98662.78;4994024;28;20053;-60
2023/11/20 01:42:40;;;;;;;8.40;1.50;;;;;;;9.71;100.00;98658.63;5013630;28;20021;-60
2023/11/20 01:45:08;;;;;;;7.57;1.63;;;;;;;9.75;100.00;98651.78;5015623;28;20036;-60
2023/11/20 01:47:38;;;;;;;9.25;2.08;;;;;;;9.91;100.00;98649.78;4992436;28;20030;-60
2023/11/20 01:50:10;;;;;;;;;;;;;;;9.97;100.00;98648.94;5012079;28;20032;-60
2023/11/20 01:52:39;;;;;;;15.63;1.70;;;;;;;10.01;100.00;98647.53;4995619;28;19952;-60
2023/11/20 01:55:07;;;;;;;9.10;1.20;;;;;;;10.00;100.00;98632.31;5010648;28;20397;-60
2023/11/20 01:57:34;;;;;;;10.82;1.70;;;;;;;10.06;100.00;98628.78;4997712;28;20030;-60
2023/11/20 02:00:00;;;;;;;14.60;1.50;;;;;;;10.05;100.00;98629.84;5001483;28;20112;-60
2023/11/20 02:02:25;;;;;;;17.00;1.55;;;;;;;10.07;100.00;98634.00;5017765;28;20434;-68
2023/11/20 02:04:57;;;;;;;7.20;1.48;;;;;;;10.12;100.00;98638.81;5016560;28;20037;-62
2023/11/20 02:07:23;;;;;;;5.65;1.23;;;;;;;10.31;100.00;98629.09;4994573;28;20152;-61
2023/11/20 02:09:48;;;;;;;11.20;1.35;;;;;;;10.27;100.00;98620.56;5002448;28;21303;-61
2023/11/20 02:12:13;;;;;;;9.00;1.55;;;;;;;10.25;100.00;98617.22;5001415;28;20025;-60
2023/11/20 02:14:39;;;;;;;7.68;1.45;;;;;;;10.26;100.00;98626.16;5016614;28;20374;-60
2023/11/20 02:17:04;;;;;;;15.65;1.75;;;;;;;10.24;100.00;98623.66;4997915;28;20064;-59
2023/11/20 02:19:30;;;;;;;10.93;1.85;;;;;;;10.30;100.00;98620.16;4983893;28;20061;-60
2023/11/20 02:21:55;;;;;;;14.27;1.60;;;;;;;10.45;100.00;98621.81;5006581;28;20018;-60
2023/11/20 02:24:22;;;;;;;16.70;2.60;;;;;;;10.52;100.00;98619.97;5014683;28;20032;-60
2023/11/20 02:26:59;;;;;;;11.88;1.27;;;;;;;10.50;100.00;98617.44;5000404;28;20079;-60
2023/11/20 02:29:31;;;;;;;17.38;1.98;;;;;;;10.58;100.00;98624.53;5002501;28;20029;-60
2023/11/20 02:31:56;;;;;;;14.68;1.67;;;;;;;10.63;100.00;98615.78;5015189;28;20034;-60
2023/11/20 02:34:23;;;;;;;8.35;0.93;;;;;;;10.67;100.00;98611.66;4998383;28;20393;-60
2023/11/20 02:36:48;;;;;;;12.48;2.08;;;;;;;10.66;100.00;98621.66;4993403;28;20051;-60
2023/11/20 02:39:14;;;;;;;5.50;1.02;;;;;;;10.73;100.00;98616.22;5004303;28;20045;-60
2023/11/20 02:41:40;;;;;;;8.23;1.20;;;;;;;10.81;100.00;98610.59;5017679;28;20029;-60
2023/11/20 02:44:06;;;;;;;8.93;1.67;;;;;;;10.76;100.00;98610.38;5015279;28;20125;-60
2023/11/20 02:46:31;;;;;;;13.15;1.42;;;;;;;10.73;100.00;98608.09;4999123;28;20116;-60
2023/11/20 02:48:57;;;;;;;13.57;1.30;;;;;;;10.71;100.00;98611.00;5005700;28;20084;-61
2023/11/20 02:51:23;;;;;;;13.15;1.42;;;;;;;10.67;100.00;98611.66;4997973;28;20474;-61
2023/11/20 02:53:48;;;;;;;11.10;1.50;;;;;;;10.66;100.00;98604.56;5016112;28;20037;-61
2023/11/20 02:56:14;;;;;;;10.18;1.55;;;;;;;10.66;100.00;98600.00;4998909;28;20469;-60
2023/11/20 02:58:39;;;;;;;6.43;0.95;;;;;;;10.68;100.00;98605.19;5005441;28;20029;-60
2023/11/20 03:01:07;;;;;;;9.13;1.08;;;;;;;10.65;100.00;98598.31;5001236;28;20026;-60
2023/11/20 03:03:33;;;;;;;15.90;1.60;;;;;;;10.65;100.00;98603.72;4993308;28;20112;-61
2023/11/20 03:05:58;;;;;;;14.60;1.98;;;;;;;10.68;100.00;98592.47;5001034;28;20025;-60
2023/11/20 03:08:24;;;;;;;12.32;1.50;;;;;;;10.71;100.00;98599.34;5000832;28;20481;-61
2023/11/20 03:10:49;;;;;;;12.00;1.10;;;;;;;10.72;100.00;98590.22;5005488;28;20044;-60
2023/11/20 03:13:14;;;;;;;11.75;1.33;;;;;;;10.73;100.00;98589.97;5004217;28;20045;-61
2023/11/20 03:15:41;;;;;;;10.15;1.15;;;;;;;10.76;100.00;98586.03;4996693;28;20520;-61
2023/11/20 03:18:06;;;;;;;12.85;1.67;;;;;;;10.87;100.00;98579.13;5007274;28;20028;-61
2023/11/20 03:20:32;;;;;;;8.63;1.20;;;;;;;10.91;100.00;98580.41;4997536;28;20029;-60
2023/11/20 03:22:58;;;;;;;9.65;1.25;;;;;;;10.91;100.00;98567.69;5001090;28;20107;-60
2023/11/20 03:25:23;;;;;;;12.82;1.30;;;;;;;10.90;100.00;98554.38;5030541;28;20373;-61
2023/11/20 03:27:48;;;;;;;18.38;2.10;;;;;;;10.90;100.00;98559.81;5017105;28;20083;-61
2023/11/20 03:30:14;;;;;;;13.73;1.30;;;;;;;10.93;100.00;98567.50;4999635;28;20037;-60
2023/11/20 03:32:39;;;;;;;11.68;1.73;;;;;;;10.94;100.00;98563.72;5009379;28;20029;-61
2023/11/20 03:35:05;;;;;;;17.15;1.52;;;;;;;10.95;100.00;98557.25;5014657;28;20053;-61
2023/11/20 03:37:31;;;;;;;10.88;1.45;;;;;;;10.97;100.00;98536.22;4999527;28;20036;-62
2023/11/20 03:39:56;;;;;;;12.52;1.70;;;;;;;11.04;100.00;98564.13;4999597;28;20057;-62
2023/11/20 03:42:22;;;;;;;11.30;1.63;;;;;;;11.08;100.00;98565.38;5011943;28;20390;-62
2023/11/20 03:44:48;;;;;;;11.35;1.40;;;;;;;11.04;100.00;98563.31;4999517;28;20056;-61
2023/11/20 03:47:13;;;;;;;12.32;1.42;;;;;;;11.09;100.00;98563.50;5014718;28;20038;-67
2023/11/20 03:49:39;;;;;;;8.63;1.10;;;;;;;11.06;100.00;98567.47;4998709;28;20025;-62
2023/11/20 03:52:05;;;;;;;7.15;1.30;;;;;;;11.08;100.00;98561.81;4999567;28;20038;-62
2023/11/20 03:54:31;;;;;;;6.50;1.30;;;;;;;11.08;100.00;98569.94;5000891;28;20037;-62
2023/11/20 03:56:56;;;;;;;11.35;1.42;;;;;;;11.07;100.00;98574.53;4997157;28;20386;-62
2023/11/20 03:59:22;;;;;;;11.23;1.13;;;;;;;11.14;100.00;98567.22;5000084;28;20057;-64
2023/11/20 04:01:47;;;;;;;13.90;1.30;;;;;;;11.17;100.00;98564.09;5002300;28;20378;-62
2023/11/20 04:04:13;;;;;;;7.90;1.60;;;;;;;11.13;100.00;98559.31;5044250;22;20021;-75
2023/11/20 04:06:39;;;;;;;11.13;1.50;;;;;;;11.11;100.00;98566.81;5053667;28;20064;-75
2023/11/20 04:09:05;;;;;;;11.60;1.45;;;;;;;11.11;100.00;98558.72;5060401;28;20010;-75
2023/11/20 04:11:30;;;;;;;7.80;1.48;;;;;;;11.12;100.00;98555.75;5069988;28;20345;-75
2023/11/20 04:13:56;;;;;;;10.52;1.48;;;;;;;11.09;100.00;98574.31;5063305;28;20028;-76
2023/11/20 04:16:21;;;;;;;7.85;1.15;;;;;;;11.07;100.00;98576.41;5064059;28;20028;-75
2023/11/20 04:18:46;;;;;;;17.58;1.42;;;;;;;11.00;100.00;98562.03;5062474;28;20364;-75
2023/11/20 04:21:12;;;;;;;11.15;1.48;;;;;;;11.05;100.00;98565.78;5063524;28;20031;-75
2023/11/20 04:23:38;;;;;;;11.07;1.40;;;;;;;11.15;100.00;98562.63;5057007;28;20025;-75
2023/11/20 04:26:03;;;;;;;8.20;0.95;;;;;;;11.13;100.00;98567.41;5059825;28;20183;-75
2023/11/20 04:28:31;;;;;;;7.40;1.40;;;;;;;11.12;100.00;98563.06;5063545;28;20277;-76
2023/11/20 04:31:00;;;;;;;10.10;1.27;;;;;;;11.00;100.00;98562.88;5054824;28;20045;-75
2023/11/20 04:33:25;;;;;;;4.68;0.85;;;;;;;11.04;100.00;98552.47;5055424;28;20022;-75
2023/11/20 04:35:51;;;;;;;12.85;2.00;;;;;;;10.95;100.00;98559.97;5056567;28;20024;-76
2023/11/20 04:38:17;;;;;;;12.90;1.50;;;;;;;10.95;100.00;98550.00;5056718;28;20021;-76
2023/11/20 04:40:42;;;;;;;14.35;1.88;;;;;;;10.91;100.00;98537.91;5064088;28;20062;-77
2023/11/20 04:43:07;;;;;;;10.63;2.33;;;;;;;10.98;100.00;98540.63;5064132;28;20218;-77
2023/11/20 04:45:33;;;;;;;11.13;1.60;;;;;;;11.00;100.00;98541.22;5063703;28;20090;-76
2023/11/20 04:47:58;;;;;;;4.97;1.20;;;;;;;11.08;100.00;98561.81;5064157;28;20397;-78
2023/11/20 04:50:24;;;;;;;9.88;1.20;;;;;;;10.96;100.00;98567.06;5064193;28;20148;-78
2023/11/20 04:52:50;;;;;;;8.23;1.58;;;;;;;10.99;100.00;98560.38;5066038;28;20092;-77
2023/11/20 04:55:16;;;;;;;9.07;1.10;;;;;;;10.94;100.00;98536.66;5065060;28;20274;-77
2023/11/20 04:57:41;;;;;;;13.65;1.35;;;;;;;10.84;100.00;98547.09;5065538;28;20066;-77
2023/11/20 05:00:08;;;;;;;11.20;2.22;;;;;;;10.84;100.00;98547.09;5057048;28;20017;-77
2023/11/20 05:02:34;;;;;;;13.88;1.40;;;;;;;10.70;100.00;98541.72;5065108;28;20028;-76
2023/11/20 05:04:59;;;;;;;12.90;1.60;;;;;;;10.66;100.00;98537.78;5061010;28;20029;-77
2023/11/20 05:07:24;;;;;;;8.30;2.13;;;;;;;10.59;100.00;98549.66;5059203;28;20029;-76
2023/11/20 05:09:50;;;;;;;11.52;1.10;;;;;;;10.56;100.00;98564.41;5054081;28;20032;-76
2023/11/20 05:12:16;;;;;;;12.20;1.55;;;;;;;10.53;100.00;98562.97;5059137;28;20025;-75
2023/11/20 05:14:41;;;;;;;8.63;1.17;;;;;;;10.56;100.00;98564.41;5042476;28;20259;-76
2023/11/20 05:17:07;;;;;;;15.80;1.52;;;;;;;10.60;100.00;98562.13;5059867;28;20033;-77
2023/11/20 05:19:32;;;;;;;13.90;1.50;;;;;;;10.61;100.00;98566.47;5043049;28;20021;-76
2023/11/20 05:21:58;;;;;;;13.52;1.60;;;;;;;10.58;100.00;98554.19;5050637;28;20032;-76
2023/11/20 05:24:24;;;;;;;8.23;1.38;;;;;;;10.55;100.00;98570.03;5043134;28;20093;-76
2023/11/20 05:26:50;;;;;;;9.73;1.48;;;;;;;10.55;100.00;98554.63;5058269;28;20024;-76
2023/11/20 05:29:15;;;;;;;7.93;1.75;;;;;;;10.47;100.00;98563.78;5061006;28;20021;-75
2023/11/20 05:31:42;;;;;;;10.70;1.20;;;;;;;10.41;100.00;98552.97;5058609;28;20032;-77
2023/11/20 05:34:07;;;;;;;10.63;1.67;;;;;;;10.40;100.00;98562.97;5074445;28;20036;-75
2023/11/20 05:36:33;;;;;;;7.13;1.52;;;;;;;10.42;100.00;98565.44;5064155;28;20388;-76
2023/11/20 05:38:58;;;;;;;11.68;1.80;;;;;;;10.38;100.00;98566.91;5059364;28;20029;-75
2023/11/20 05:41:23;;;;;;;9.88;1.63;;;;;;;10.41;100.00;98566.50;5057088;28;20032;-77
2023/11/20 05:43:49;;;;;;;11.57;1.70;;;;;;;10.40;100.00;98556.69;5060746;28;20066;-78
2023/11/20 05:46:14;;;;;;;6.60;1.08;;;;;;;10.41;100.00;98563.78;5065889;28;20021;-78
2023/11/20 05:48:39;;;;;;;12.27;1.38;;;;;;;10.29;100.00;98550.06;5058112;28;20049;-75
2023/11/20 05:51:05;;;;;;;12.85;1.65;;;;;;;10.26;100.00;98575.59;5065590;28;20097;-76
2023/11/20 05:53:30;;;;;;;10.63;1.20;;;;;;;10.28;100.00;98570.84;5064924;28;20221;-74
2023/11/20 05:55:55;;;;;;;10.65;1.00;;;;;;;10.26;100.00;98570.19;5065828;28;20024;-75
2023/11/20 05:58:21;;;;;;;10.57;1.30;;;;;;;10.22;100.00;98571.66;5066210;28;20021;-78
2023/11/20 06:00:46;;;;;;;7.15;0.70;;;;;;;10.30;100.00;98587.72;5064558;28;20217;-76
2023/11/20 06:03:11;;;;;;;8.70;1.25;;;;;;;10.26;100.00;98561.25;5066286;28;20048;-76
2023/11/20 06:05:37;;;;;;;8.75;1.23;;;;;;;10.35;100.00;98575.41;5067961;28;20035;-79
2023/11/20 06:08:02;;;;;;;7.22;0.93;;;;;;;10.34;100.00;98576.47;5046834;28;20078;-78
2023/11/20 06:10:28;;;;;;;8.15;1.60;;;;;;;10.32;100.00;98571.25;5048691;28;20025;-79
2023/11/20 06:12:53;;;;;;;9.05;1.40;;;;;;;10.40;100.00;98562.13;5055839;28;20021;-78
2023/11/20 06:15:19;;;;;;;10.20;1.80;;;;;;;10.37;100.00;98566.06;5061707;28;20028;-77
2023/11/20 06:17:44;;;;;;;11.27;1.58;;;;;;;10.34;100.00;98579.19;5064981;28;20043;-77
2023/11/20 06:20:10;;;;;;;13.45;1.75;;;;;;;10.38;100.00;98575.88;5056615;28;20212;-79
2023/11/20 06:22:36;;;;;;;12.60;1.42;;;;;;;10.35;100.00;98578.13;5055025;28;20021;-79
2023/11/20 06:25:04;;;;;;;7.47;1.38;;;;;;;10.36;100.00;98580.63;5066397;28;20222;-79
2023/11/20 06:27:30;;;;;;;5.45;0.98;;;;;;;10.46;100.00;98588.34;5064964;28;20020;-78
2023/11/20 06:29:55;;;;;;;7.03;1.08;;;;;;;10.31;100.00;98569.59;5064846;28;20021;-79
2023/11/20 06:32:21;;;;;;;13.25;1.15;;;;;;;10.42;100.00;98585.22;5064329;28;20024;-78
2023/11/20 06:34:47;;;;;;;8.60;1.08;;;;;;;10.41;100.00;98591.66;5064180;28;20040;-77
2023/11/20 06:37:12;;;;;;;10.88;1.48;;;;;;;10.51;100.00;98596.66;5058970;28;20033;-78
2023/11/20 06:39:38;;;;;;;5.65;0.90;;;;;;;10.45;100.00;98603.75;5062054;28;20021;-77
2023/11/20 06:42:04;;;;;;;9.95;1.45;;;;;;;10.49;100.00;98601.44;5061798;28;20039;-77
2023/11/20 06:44:29;;;;;;;9.88;1.20;;;;;;;10.44;100.00;98609.34;5059046;28;20222;-77
2023/11/20 06:46:55;;;;;;;10.00;1.38;;;;;;;10.47;100.00;98606.22;5062574;28;20090;-76
2023/11/20 06:49:20;;;;;;;6.68;1.33;;;;;;;10.44;100.00;98607.47;5061565;28;20031;-75
2023/11/20 06:51:46;;;;;;;10.50;1.15;;;;;;;10.48;100.00;98599.78;5054749;28;20032;-76
2023/11/20 06:54:11;;;;;;;12.90;1.52;;;;;;;10.51;100.00;98611.03;5055158;28;20314;-75
2023/11/20 06:56:36;;;;;;;16.23;2.00;;;;;;;10.44;100.00;98601.25;5062359;28;20020;-75
2023/11/20 06:59:02;;;;;;;9.95;1.67;;;;;;;10.45;100.00;98602.88;5061542;28;20054;-75
2023/11/20 07:01:28;;;;;;;10.38;1.77;;;;;;;10.49;100.00;98594.16;5056368;28;20023;-75
2023/11/20 07:03:55;;;;;;;10.13;1.40;;;;;;;10.55;100.00;98599.78;5055910;28;20063;-75
2023/11/20 07:06:21;;;;;;;7.85;1.13;;;;;;;10.59;100.00;98607.28;5062399;28;20218;-76
2023/11/20 07:08:47;;;;;;;6.57;1.10;;;;;;;10.62;100.00;98611.44;5074735;22;20075;-76
2023/11/20 07:11:14;;;;;;;9.13;1.33;;;;;;;10.57;100.00;98590.41;5032627;28;20017;-76
2023/11/20 07:13:39;;;;;;;17.35;1.33;;;;;;;10.57;100.00;98612.06;5042979;28;20040;-76
2023/11/20 07:16:05;;;;;;;10.48;1.40;;;;;;;10.55;100.00;98611.44;5043382;28;20043;-76
2023/11/20 07:18:31;;;;;;;9.50;1.40;;;;;;;10.58;100.00;98608.31;5044355;28;20025;-79
2023/11/20 07:20:56;;;;;;;11.50;1.33;;;;;;;10.54;100.00;98601.66;5048955;28;20367;-77
2023/11/20 07:23:21;;;;;;;10.07;1.27;;;;;;;10.46;100.00;98588.34;5063611;28;20017;-77
2023/11/20 07:25:47;;;;;;;5.75;1.10;;;;;;;10.65;100.00;98616.44;5052126;28;20071;-76
2023/11/20 07:28:13;;;;;;;14.82;2.40;;;;;;;10.65;100.00;98609.13;5062634;28;20253;-76
2023/11/20 07:30:38;;;;;;;18.00;1.98;;;;;;;10.62;100.00;98597.91;5064092;28;20047;-76
2023/11/20 07:33:03;;;;;;;5.97;1.58;;;;;;;10.64;100.00;98595.84;5054526;28;20030;-77
2023/11/20 07:35:29;;;;;;;10.27;1.90;;;;;;;10.77;100.00;98597.69;5062681;28;20309;-74
2023/11/20 07:37:54;;;;;;;11.75;1.55;;;;;;;10.84;100.00;98602.03;5062660;28;20059;-75
2023/11/20 07:40:21;;;;;;;14.32;3.75;;;;;;;10.81;100.00;98593.53;5062496;28;20039;-75
2023/11/20 07:42:46;;;;;;;14.80;5.10;;;;;;;10.87;100.00;98601.66;5061973;28;20052;-74
2023/11/20 07:45:12;;;;;;;11.68;2.88;;;;;;;10.84;100.00;98595.81;5051267;28;20356;-75
2023/11/20 07:47:41;;;;;;;18.05;3.88;;;;;;;10.86;100.00;98597.25;5055765;28;20026;-75
2023/11/20 07:50:10;;;;;;;13.57;5.32;;;;;;;10.87;100.00;98600.78;5062013;28;20025;-74
2023/11/20 07:52:36;;;;;;;;;;;;;;;10.95;100.00;98604.13;5062885;28;20033;-76
2023/11/20 07:55:01;;;;;;;8.82;2.78;;;;;;;10.65;100.00;98570.44;5056309;28;19909;-74
2023/11/20 07:57:26;;;;;;;15.27;2.45;;;;;;;10.68;100.00;98570.84;5055606;28;20266;-73
2023/11/20 07:59:52;;;;;;;15.30;1.90;;;;;;;10.81;100.00;98590.81;5059055;28;20027;-75
2023/11/20 08:02:21;;;;;;;12.77;2.35;;;;;;;10.84;100.00;98593.09;5054366;28;20198;-76
2023/11/20 08:04:47;;;;;;;12.07;1.90;;;;;;;10.96;100.00;98594.13;5046354;28;20067;-72
2023/11/20 08:07:13;;;;;;;9.98;1.85;;;;;;;10.93;100.00;98589.16;5062407;28;20036;-79
2023/11/20 08:09:39;;;;;;;9.80;1.73;;;;;;;11.08;100.00;98595.16;5055165;28;20021;-78
2023/11/20 08:12:05;;;;;;;6.30;1.67;;;;;;;10.91;100.00;98566.88;5055566;28;20020;-77
2023/11/20 08:14:31;;;;;;;13.13;1.88;;;;;;;11.04;100.00;98580.38;5052615;28;20047;-76
2023/11/20 08:16:58;;;;;;;16.00;1.88;;;;;;;11.14;100.00;98598.88;5062238;28;20206;-74
2023/11/20 08:19:24;;;;;;;18.33;1.80;;;;;;;11.16;100.00;98586.81;5047814;28;20044;-74
2023/11/20 08:21:49;;;;;;;9.32;1.15;;;;;;;11.18;100.00;98586.56;5049209;28;20087;-76
2023/11/20 08:24:14;;;;;;;5.75;1.23;;;;;;;11.16;100.00;98591.34;5062058;28;20017;-77
2023/11/20 08:26:40;;;;;;;6.15;1.10;;;;;;;11.12;100.00;98576.59;5067831;28;20021;-72
2023/11/20 08:29:06;;;;;;;8.27;1.38;;;;;;;11.22;100.00;98570.75;5061180;28;20043;-72
2023/11/20 08:31:32;;;;;;;8.65;1.27;;;;;;;11.36;100.00;98572.34;5054295;28;20037;-71
2023/11/20 08:33:57;;;;;;;9.60;1.80;;;;;;;11.31;100.00;98548.63;5059205;28;20066;-72
2023/11/20 08:36:23;;;;;;;10.00;1.30;;;;;;;11.54;100.00;98561.66;5061043;28;20340;-74
2023/11/20 08:38:48;;;;;;;9.27;1.25;;;;;;;11.50;100.00;98546.88;5061738;28;20017;-77
2023/11/20 08:41:13;;;;;;;10.52;1.70;;;;;;;11.49;100.00;98550.63;5055142;28;20330;-75
2023/11/20 08:43:40;;;;;;;5.03;0.80;;;;;;;11.57;100.00;98563.91;5053825;28;20258;-78
2023/11/20 08:46:08;;;;;;;10.82;1.48;;;;;;;11.48;100.00;98576.06;5062143;28;20334;-73
2023/11/20 08:48:33;;;;;;;8.00;1.17;;;;;;;11.41;100.00;98542.75;5062700;28;20067;-78
2023/11/20 08:50:58;;;;;;;9.68;1.20;;;;;;;11.71;100.00;98532.19;5059580;28;20241;-70
2023/11/20 08:53:24;;;;;;;5.35;1.42;;;;;;;12.51;100.00;98558.75;5056235;28;20236;-72
2023/11/20 08:55:49;;;;;;;8.50;1.25;;;;;;;12.85;100.00;98553.84;5060241;28;20024;-71
2023/11/20 08:58:15;;;;;;;8.18;1.08;;;;;;;12.60;100.00;98557.44;5053008;28;20021;-72
2023/11/20 09:00:42;;;;;;;8.13;1.02;;;;;;;12.70;100.00;98546.06;5058704;28;20036;-72
2023/11/20 09:03:07;;;;;;;5.45;1.00;;;;;;;13.72;100.00;98532.78;5057239;28;20336;-72
2023/11/20 09:05:32;;;;;;;7.03;1.00;;;;;;;15.60;100.00;98536.66;5057633;28;20025;-71
2023/11/20 09:07:58;;;;;;;6.05;1.00;;;;;;;14.89;100.00;98526.72;5062009;28;20017;-69
2023/11/20 09:10:23;;;;;;;7.32;1.23;;;;;;;15.42;100.00;98524.84;5065562;28;20021;-69
2023/11/20 09:12:50;;;;;;;7.15;1.15;;;;;;;17.16;100.00;98516.94;5059738;28;20383;-72
2023/11/20 09:15:16;;;;;;;5.47;1.00;;;;;;;18.57;100.00;98526.06;5065503;28;20345;-73
2023/11/20 09:17:42;;;;;;;9.63;1.42;;;;;;;18.57;100.00;98526.06;5064663;28;20025;-74
2023/11/20 09:20:12;;;;;;;5.30;1.20;;;;;;;18.02;97.26;98529.97;5066564;28;20060;-73
2023/11/20 09:22:38;;;;;;;10.98;1.40;;;;;;;16.99;100.00;98536.09;5063747;28;20017;-72
2023/11/20 09:25:04;;;;;;;8.00;1.00;;;;;;;14.59;100.00;98543.22;5057304;28;20044;-73
2023/11/20 09:27:29;;;;;;;8.68;1.23;;;;;;;13.87;100.00;98562.28;5059062;28;20330;-76
2023/11/20 09:29:56;;;;;;;6.85;1.20;;;;;;;13.30;100.00;98553.59;5056106;28;20029;-72
2023/11/20 09:32:21;;;;;;;9.43;1.23;;;;;;;13.04;100.00;98554.69;5056667;28;20063;-76
2023/11/20 09:34:46;;;;;;;9.23;1.02;;;;;;;13.06;100.00;98561.56;5065985;28;22892;-77
2023/11/20 09:37:12;;;;;;;10.40;1.25;;;;;;;12.70;100.00;98570.47;5070677;28;20024;-70
2023/11/20 09:39:41;;;;;;;4.57;0.65;;;;;;;12.74;100.00;98560.03;5061476;28;20028;-77
2023/11/20 09:42:08;;;;;;;5.88;1.17;;;;;;;12.69;100.00;98560.69;5062062;28;20016;-73
2023/11/20 09:44:38;;;;;;;13.45;1.10;;;;;;;12.24;100.00;98558.97;5063353;28;20130;-75
2023/11/20 09:47:06;;;;;;;3.03;0.90;;;;;;;12.40;100.00;98546.75;5054067;28;20352;-74
2023/11/20 09:49:32;;;;;;;11.70;3.40;;;;;;;12.49;100.00;98550.81;5057612;28;20071;-75
2023/11/20 09:51:59;;;;;;;10.88;2.00;;;;;;;12.74;100.00;98562.75;5060545;28;20293;-75
2023/11/20 09:54:24;;;;;;;6.25;0.95;;;;;;;12.65;100.00;98538.59;5057798;28;20037;-75
2023/11/20 09:56:53;;;;;;;8.73;1.73;;;;;;;12.97;100.00;98549.34;5064284;28;20337;-73
2023/11/20 09:59:21;;;;;;;3.75;0.80;;;;;;;13.53;100.00;98552.91;5055278;28;20090;-74
2023/11/20 10:01:51;;;;;;;7.90;2.00;;;;;;;15.30;100.00;98538.53;5058331;28;20225;-76
2023/11/20 10:04:18;;;;;;;7.70;1.50;;;;;;;16.12;100.00;98529.22;5064111;28;20033;-76
2023/11/20 10:06:45;;;;;;;8.90;1.00;;;;;;;15.90;100.00;98548.19;5062379;28;20051;-78
2023/11/20 10:09:12;;;;;;;4.00;0.95;;;;;;;18.37;100.00;98518.53;5059865;28;20016;-75
2023/11/20 10:11:40;;;;;;;5.82;1.08;;;;;;;21.63;94.23;98519.50;5063796;28;20029;-73
2023/11/20 10:14:05;;;;;;;6.32;0.95;;;;;;;23.64;76.32;98522.22;5064471;28;20048;-71
2023/11/20 10:16:35;;;;;;;4.78;1.02;;;;;;;24.24;69.82;98516.16;5057071;28;20044;-71
2023/11/20 10:19:04;;;;;;;7.95;1.15;;;;;;;22.57;70.12;98520.59;5063835;28;20021;-72
2023/11/20 10:21:31;;;;;;;5.68;1.23;;;;;;;21.39;74.55;98522.09;5060922;28;20241;-71
2023/11/20 10:23:59;;;;;;;4.57;0.70;;;;;;;22.35;72.38;98529.28;5063381;28;20058;-71
2023/11/20 10:26:25;;;;;;;4.05;0.70;;;;;;;18.87;84.10;98523.88;5060118;28;20353;-71
2023/11/20 10:28:50;;;;;;;4.95;1.30;;;;;;;16.14;100.00;98532.53;5059752;28;20044;-72
2023/11/20 10:31:16;;;;;;;4.10;0.70;;;;;;;15.17;100.00;98524.31;5048317;28;20045;-72
2023/11/20 10:33:43;;;;;;;7.72;1.05;;;;;;;15.01;100.00;98502.22;5065302;28;20044;-71
2023/11/20 10:36:13;;;;;;;9.57;1.00;;;;;;;15.04;100.00;98509.91;5064305;28;20029;-72
2023/11/20 10:38:39;;;;;;;5.30;1.20;;;;;;;17.57;100.00;98503.72;5051614;28;20032;-72
2023/11/20 10:41:10;;;;;;;5.18;1.40;;;;;;;19.95;99.76;98482.06;5053840;28;20029;-72
2023/11/20 10:43:37;;;;;;;11.68;2.53;;;;;;;19.51;94.51;98482.47;5055399;28;20025;-72
2023/11/20 10:46:05;;;;;;;6.28;0.90;;;;;;;16.76;100.00;98498.81;5060615;28;20023;-73
2023/11/20 10:48:37;;;;;;;4.00;1.17;;;;;;;15.03;100.00;98493.78;5062194;28;20021;-72
2023/11/20 10:51:08;;;;;;;7.22;2.10;;;;;;;14.85;100.00;98498.31;5064252;28;20071;-72
2023/11/20 10:53:38;;;;;;;4.95;1.00;;;;;;;14.33;100.00;98486.44;5056399;28;20025;-71
2023/11/20 10:56:05;;;;;;;7.30;1.00;;;;;;;14.89;100.00;98483.16;5062562;28;20380;-71
2023/11/20 10:58:31;;;;;;;4.38;0.85;;;;;;;13.72;100.00;98478.41;5062300;28;20110;-71
2023/11/20 11:01:01;;;;;;;9.60;1.50;;;;;;;13.88;100.00;98479.63;5049957;28;20314;-71
2023/11/20 11:03:28;;;;;;;8.52;1.90;;;;;;;13.75;100.00;98471.66;5052434;28;20036;-72
2023/11/20 11:05:54;;;;;;;4.55;1.10;;;;;;;13.19;100.00;98489.97;5057000;28;20017;-71
2023/11/20 11:08:20;;;;;;;8.75;1.30;;;;;;;12.63;100.00;98491.84;5061030;28;20340;-72
2023/11/20 11:10:48;;;;;;;5.43;0.95;;;;;;;11.48;100.00;98496.69;5062743;28;20099;-75
2023/11/20 11:13:18;;;;;;;7.53;0.95;;;;;;;10.98;100.00;98500.00;5061798;28;20032;-74
2023/11/20 11:15:46;;;;;;;2.85;0.77;;;;;;;11.11;100.00;98508.09;5057718;28;20040;-73
2023/11/20 11:18:14;;;;;;;3.95;0.73;;;;;;;11.43;100.00;98502.75;5054734;28;20489;-74
2023/11/20 11:20:47;;;;;;;3.17;0.88;;;;;;;13.02;100.00;98491.63;5056678;28;20013;-74